Time;durP1;ratioP1;P1;durP2;ratioP2;P2;SDS_P1;SDS_P2;PMS_P1;PMS_P2;Temp;Humidity;BMP_temperature;BMP_pressure;BME280_temperature;BME280_humidity;BME280_pressure;Samples;Min_cycle;Max_cycle;Signal;HPM_P1;HPM_P2
2024/02/18 06:53:49;;;;;;;0.20;0.20;;;;;;;16.09;53.90;75565.59;6339144;22;20099;-93
2024/02/18 06:56:18;;;;;;;0.20;0.20;;;;;;;16.15;53.09;75574.97;6313949;22;20312;-95
2024/02/18 06:58:43;;;;;;;0.20;0.20;;;;;;;16.23;52.57;75584.56;6316180;22;20006;-94
2024/02/18 07:01:08;;;;;;;0.20;0.20;;;;;;;16.39;52.21;75603.16;6313409;22;20620;-94
2024/02/18 07:03:34;;;;;;;0.20;0.20;;;;;;;16.43;52.84;75602.97;6313797;22;20006;-96
2024/02/18 07:06:00;;;;;;;0.20;0.20;;;;;;;16.71;51.77;75635.97;6314121;22;20406;-96
2024/02/18 07:08:28;;;;;;;0.20;0.20;;;;;;;17.40;50.17;75719.16;6317792;22;20349;-96
2024/02/18 07:10:54;;;;;;;0.20;0.20;;;;;;;17.71;49.64;75758.56;6343264;22;20014;-95
2024/02/18 07:13:20;;;;;;;0.20;0.20;;;;;;;17.76;49.35;75759.00;6313803;22;20007;-93
2024/02/18 07:15:46;;;;;;;0.20;0.20;;;;;;;18.13;48.22;75802.84;6313244;22;20431;-94
2024/02/18 07:18:11;;;;;;;0.20;0.20;;;;;;;17.51;48.79;75732.38;6339734;22;20017;-93
2024/02/18 07:20:36;;;;;;;0.20;0.20;;;;;;;18.31;47.36;75824.44;6340660;22;20014;-94
2024/02/18 07:23:02;;;;;;;0.20;0.20;;;;;;;18.51;45.90;75852.84;6313571;22;20005;-94
2024/02/18 07:25:27;;;;;;;0.20;0.20;;;;;;;19.45;43.62;75957.81;6314081;22;20009;-92
2024/02/18 07:27:53;;;;;;;0.20;0.20;;;;;;;19.54;43.32;75974.22;6342530;22;20009;-92
2024/02/18 07:30:18;;;;;;;0.20;0.20;;;;;;;19.03;45.02;75905.75;6320346;22;20010;-95
2024/02/18 07:32:44;;;;;;;0.20;0.20;;;;;;;18.49;46.15;75844.88;6336711;22;20011;-94
2024/02/18 07:35:09;;;;;;;0.20;0.20;;;;;;;19.24;45.29;75938.78;6365252;22;20017;-93
2024/02/18 07:37:34;;;;;;;0.20;0.20;;;;;;;18.52;46.65;75848.47;6340834;22;20065;-96
2024/02/18 07:40:01;;;;;;;0.20;0.20;;;;;;;18.39;45.79;75838.47;6341534;22;20041;-94
2024/02/18 07:42:26;;;;;;;0.20;0.20;;;;;;;18.37;46.34;75828.25;6316472;22;20020;-93
2024/02/18 07:44:51;;;;;;;0.20;0.20;;;;;;;18.65;44.81;75866.28;6341226;22;19991;-93
2024/02/18 07:47:18;;;;;;;0.20;0.20;;;;;;;18.78;45.08;75879.72;6341632;22;19995;-93
2024/02/18 07:49:44;;;;;;;0.20;0.20;;;;;;;19.43;43.66;75955.41;6341493;22;20021;-93
2024/02/18 07:52:10;;;;;;;0.20;0.20;;;;;;;18.98;44.98;75905.34;6340994;22;20010;-92
2024/02/18 07:54:35;;;;;;;0.20;0.20;;;;;;;19.24;44.22;75933.78;6341204;22;19987;-93
2024/02/18 07:57:01;;;;;;;0.20;0.20;;;;;;;19.80;42.55;75999.88;6340994;22;20025;-94
2024/02/18 07:59:29;;;;;;;0.20;0.20;;;;;;;20.03;41.82;76026.34;6367871;22;19999;-95
2024/02/18 08:01:55;;;;;;;0.20;0.20;;;;;;;19.52;42.29;75971.81;6341362;22;20038;-94
2024/02/18 08:04:20;;;;;;;0.20;0.20;;;;;;;19.21;43.32;75926.75;6368015;22;20003;-95
2024/02/18 08:06:45;;;;;;;0.20;0.20;;;;;;;18.69;43.98;75871.09;6340581;22;19999;-96
2024/02/18 08:25:38;;;;;;;0.20;0.20;;;;;;;18.55;46.64;75854.88;6314492;22;20022;-96
2024/02/18 08:28:03;;;;;;;0.20;0.20;;;;;;;18.87;44.57;75892.13;6332036;22;19999;-96
2024/02/18 08:35:39;;;;;;;0.20;0.20;;;;;;;19.74;42.81;75989.88;6296495;22;20050;-95
2024/02/18 08:38:06;;;;;;;0.20;0.20;;;;;;;19.90;40.66;76008.50;6376899;22;20057;-96
2024/02/18 08:40:31;;;;;;;0.20;0.20;;;;;;;19.43;42.08;75955.41;6350791;22;20432;-96
2024/02/18 08:42:57;;;;;;;0.20;0.20;;;;;;;19.41;42.76;75953.00;6350570;22;19998;-96
2024/02/18 08:45:22;;;;;;;0.20;0.20;;;;;;;19.28;43.56;75935.78;6354849;22;20502;-96
2024/02/18 08:47:48;;;;;;;0.20;0.20;;;;;;;20.15;41.73;76041.38;6356653;22;20006;-96
2024/02/18 08:50:14;;;;;;;0.20;0.20;;;;;;;20.35;40.49;76064.81;6358600;22;20618;-96
2024/02/18 08:52:40;;;;;;;0.20;0.20;;;;;;;19.88;42.13;76015.13;6356870;22;20002;-96
2024/02/18 08:55:06;;;;;;;0.20;0.20;;;;;;;19.54;42.85;75972.00;6357063;22;20009;-96
2024/02/18 08:57:34;;;;;;;0.20;0.20;;;;;;;19.21;43.55;75930.16;6347662;22;19998;-96
2024/02/18 09:00:02;;;;;;;0.20;0.20;;;;;;;20.23;41.64;76050.38;6372034;22;20091;-96
2024/02/18 09:02:27;;;;;;;0.20;0.20;;;;;;;19.84;42.44;76004.69;6345136;22;19998;-96
2024/02/18 09:04:53;;;;;;;0.20;0.20;;;;;;;20.74;40.74;76110.53;6345891;22;20383;-96
2024/02/18 09:07:18;;;;;;;0.20;0.20;;;;;;;19.67;43.10;75981.47;6319025;22;20090;-96
2024/02/18 09:09:44;;;;;;;0.20;0.20;;;;;;;20.17;41.56;76043.16;6345287;22;20739;-96
2024/02/18 09:12:09;;;;;;;0.20;0.20;;;;;;;20.24;42.33;76054.41;6373113;22;20339;-96
2024/02/18 09:14:35;;;;;;;0.20;0.20;;;;;;;20.08;41.44;76029.53;6345390;22;20005;-96
2024/02/18 09:17:00;;;;;;;0.20;0.20;;;;;;;20.13;41.65;76038.34;6345724;22;20066;-95
2024/02/18 09:19:26;;;;;;;0.20;0.20;;;;;;;19.76;42.74;75995.09;6345817;22;20055;-96
2024/02/18 09:21:52;;;;;;;0.20;0.20;;;;;;;20.40;41.92;76065.22;6373470;22;19999;-96
2024/02/18 09:24:19;;;;;;;0.17;0.17;;;;;;;20.32;41.84;76061.19;6345855;22;20002;-96
2024/02/18 09:26:45;;;;;;;0.20;0.20;;;;;;;20.87;40.85;76126.16;6345921;22;20002;-96
2024/02/18 09:29:10;;;;;;;0.20;0.20;;;;;;;20.70;40.29;76105.72;6344535;22;20018;-95
2024/02/18 09:31:36;;;;;;;0.20;0.20;;;;;;;20.77;41.78;76108.50;6348956;22;20012;-96
2024/02/18 09:34:02;;;;;;;0.20;0.20;;;;;;;21.30;40.07;76171.06;6352633;22;20009;-96
2024/02/18 09:36:28;;;;;;;0.20;0.20;;;;;;;21.03;40.46;76149.81;6346212;22;20017;-96
2024/02/18 09:38:53;;;;;;;0.20;0.20;;;;;;;21.05;40.45;76149.44;6349098;22;20002;-95
2024/02/18 09:41:20;;;;;;;0.20;0.20;;;;;;;20.47;41.35;76078.06;6356839;22;20010;-96
2024/02/18 09:44:06;;;;;;;0.20;0.20;;;;;;;21.24;40.40;76172.25;6359443;22;20043;-96
2024/02/18 09:46:45;;;;;;;0.20;0.20;;;;;;;20.34;41.60;76060.78;6355881;22;20010;-95
2024/02/18 09:49:34;;;;;;;0.10;0.10;;;;;;;20.79;42.12;76118.75;6386900;22;20006;-95
2024/02/18 09:52:03;;;;;;;0.20;0.20;;;;;;;19.84;42.27;76004.09;6359642;22;20014;-95
2024/02/18 09:54:40;;;;;;;0.20;0.20;;;;;;;20.56;42.52;76089.50;6364253;22;20364;-96
2024/02/18 10:00:32;;;;;;;0.20;0.20;;;;;;;21.11;42.09;76153.81;6394972;22;20039;-95
2024/02/18 10:09:51;;;;;;;0.20;0.20;;;;;;;20.19;46.64;76045.59;6390836;22;20017;-96
2024/02/18 10:12:16;;;;;;;0.20;0.20;;;;;;;20.94;45.75;76131.16;6364674;22;19990;-96
2024/02/18 10:14:42;;;;;;;0.20;0.20;;;;;;;21.51;44.11;76200.75;6368424;22;20004;-96
2024/02/18 10:23:07;;;;;;;0.20;0.20;;;;;;;20.59;47.17;76089.69;6308905;22;20918;-96
2024/02/18 10:25:32;;;;;;;0.20;0.20;;;;;;;20.26;47.95;76056.78;6363411;22;20026;-95
2024/02/18 10:27:58;;;;;;;0.20;0.20;;;;;;;19.98;48.14;76023.13;6333108;22;20010;-96
2024/02/18 10:30:23;;;;;;;0.20;0.20;;;;;;;20.12;47.97;76037.75;6366309;22;19999;-96
2024/02/18 10:32:49;;;;;;;0.20;0.20;;;;;;;20.19;47.99;76045.59;6366611;22;19991;-96
2024/02/18 10:35:15;;;;;;;0.20;0.20;;;;;;;21.03;46.56;76144.19;6337327;22;20014;-96
2024/02/18 10:37:42;;;;;;;0.20;0.20;;;;;;;21.11;45.80;76154.44;6340149;22;20015;-96
2024/02/18 10:40:16;;;;;;;0.20;0.20;;;;;;;20.91;45.85;76130.97;6336548;22;20018;-96
2024/02/18 10:45:18;;;;;;;0.17;0.17;;;;;;;20.75;45.86;76111.72;6314392;22;20023;-95
2024/02/18 10:47:55;;;;;;;0.10;0.10;;;;;;;21.13;44.88;76154.00;6323553;22;20134;-96
2024/02/18 10:50:27;;;;;;;0.20;0.20;;;;;;;20.67;45.96;76099.91;6351376;22;20003;-96
2024/02/18 10:53:14;;;;;;;0.20;0.20;;;;;;;21.28;45.16;76165.22;6357168;22;20006;-96
2024/02/18 10:55:49;;;;;;;0.20;0.20;;;;;;;20.82;45.17;76117.31;6324701;22;20003;-96
2024/02/18 10:58:56;;;;;;;0.20;0.20;;;;;;;21.84;44.28;76234.84;6319169;22;20010;-96
2024/02/18 11:01:24;;;;;;;0.20;0.20;;;;;;;21.58;44.71;76209.19;6246898;22;20015;-96
2024/02/18 11:03:55;;;;;;;0.20;0.20;;;;;;;20.63;45.82;76097.91;6294594;22;20047;-96
2024/02/18 11:06:21;;;;;;;0.20;0.20;;;;;;;21.21;45.37;76165.84;6318634;22;20027;-96
2024/02/18 11:08:51;;;;;;;0.20;0.20;;;;;;;21.81;44.04;76236.88;6293413;22;20007;-96
2024/02/18 11:11:17;;;;;;;0.20;0.20;;;;;;;22.22;42.86;76282.81;6294731;22;20014;-96
2024/02/18 11:13:43;;;;;;;0.20;0.20;;;;;;;22.10;43.08;76271.19;6296340;22;20003;-96
2024/02/18 11:16:12;;;;;;;0.20;0.20;;;;;;;20.97;45.60;76142.59;6289432;22;20010;-96
2024/02/18 11:18:40;;;;;;;0.20;0.20;;;;;;;21.34;45.38;76175.28;6314646;22;20453;-95
2024/02/18 11:21:06;;;;;;;0.20;0.20;;;;;;;20.76;46.23;76110.09;6285765;22;20010;-95
2024/02/18 11:23:35;;;;;;;0.20;0.20;;;;;;;21.11;46.01;76153.81;6315542;22;20423;-96
2024/02/18 11:26:01;;;;;;;0.20;0.20;;;;;;;21.06;46.27;76142.78;6295753;22;20010;-96
2024/02/18 11:28:26;;;;;;;0.20;0.20;;;;;;;21.27;46.36;76173.06;6301939;22;19996;-96
2024/02/18 11:30:54;;;;;;;0.10;0.10;;;;;;;20.24;48.67;76051.59;6287098;22;20018;-96
2024/02/18 11:33:20;;;;;;;0.20;0.20;;;;;;;20.57;48.08;76092.91;6333409;22;20018;-96
2024/02/18 11:35:45;;;;;;;0.20;0.20;;;;;;;20.41;48.04;76074.84;6363227;22;20007;-96
2024/02/18 11:38:19;;;;;;;0.20;0.20;;;;;;;20.73;47.45;76109.31;6336852;22;20018;-96
2024/02/18 11:40:45;;;;;;;0.20;0.20;;;;;;;20.75;47.68;76111.72;6337723;22;20014;-96
2024/02/18 11:43:11;;;;;;;0.20;0.20;;;;;;;20.75;47.58;76117.34;6363852;22;20030;-96
2024/02/18 11:45:46;;;;;;;0.20;0.20;;;;;;;20.33;48.68;76059.59;6363049;22;20006;-96
2024/02/18 12:12:01;;;;;;;0.20;0.20;;;;;;;19.35;49.17;75946.41;6319553;22;20007;-96
2024/02/18 12:14:27;;;;;;;0.20;0.20;;;;;;;19.24;49.29;75933.78;6329744;22;20338;-96
2024/02/18 12:16:52;;;;;;;0.20;0.20;;;;;;;19.41;49.45;75953.00;6330793;22;20008;-96
2024/02/18 12:19:18;;;;;;;0.20;0.20;;;;;;;19.37;49.21;75949.38;6324162;22;20004;-96
2024/02/18 12:21:54;;;;;;;0.20;0.20;;;;;;;18.77;49.99;75875.72;6313481;22;20343;-96
2024/02/18 12:24:20;;;;;;;0.20;0.20;;;;;;;19.21;49.05;75930.16;6308445;22;19996;-95
2024/02/18 12:26:46;;;;;;;0.20;0.20;;;;;;;18.96;51.49;75905.72;6320894;22;20022;-96
2024/02/18 12:29:12;;;;;;;0.20;0.20;;;;;;;19.07;50.39;75913.34;6305109;22;20078;-96
2024/02/18 12:31:41;;;;;;;0.20;0.20;;;;;;;18.91;47.92;75896.91;6305346;22;20017;-95
2024/02/18 12:34:07;;;;;;;0.20;0.20;;;;;;;18.84;55.34;75886.91;6307958;22;20000;-94
2024/02/18 12:36:32;;;;;;;0.20;0.20;;;;;;;19.19;55.71;75924.38;6317948;22;20004;-96
2024/02/18 12:38:58;;;;;;;0.20;0.20;;;;;;;18.93;53.09;75896.53;6311729;22;20011;-94
2024/02/18 12:41:23;;;;;;;0.20;0.20;;;;;;;19.08;51.45;75915.16;6303778;22;20435;-94
2024/02/18 12:43:48;;;;;;;0.20;0.20;;;;;;;18.89;51.66;75892.31;6293014;22;20046;-95
2024/02/18 12:46:14;;;;;;;0.20;0.20;;;;;;;19.40;51.12;75949.59;6316563;22;20558;-93
2024/02/18 12:48:39;;;;;;;0.20;0.20;;;;;;;19.19;48.93;75924.97;6317373;22;20073;-94
2024/02/18 12:51:13;;;;;;;0.20;0.20;;;;;;;18.97;51.41;75901.34;6317832;22;20530;-94
2024/02/18 12:53:39;;;;;;;0.20;0.20;;;;;;;19.36;50.77;75941.97;6318594;22;20095;-92
2024/02/18 12:56:06;;;;;;;0.20;0.20;;;;;;;19.01;53.40;75906.13;6317393;22;20091;-93
2024/02/18 12:58:33;;;;;;;0.20;0.20;;;;;;;18.84;55.52;75886.91;6215534;22;20005;-94
2024/02/18 13:00:59;;;;;;;0.20;0.20;;;;;;;19.02;52.20;75910.75;6318792;22;20007;-92
2024/02/18 13:03:25;;;;;;;0.20;0.20;;;;;;;19.13;51.69;75920.56;6325271;22;20024;-91
2024/02/18 13:05:51;;;;;;;0.20;0.20;;;;;;;19.16;52.19;75920.75;6213505;22;20095;-95
2024/02/18 13:08:17;;;;;;;0.20;0.20;;;;;;;18.71;58.95;75870.72;6316595;22;20091;-93
2024/02/18 13:10:42;;;;;;;0.20;0.20;;;;;;;18.44;57.42;75839.47;6210968;22;20141;-94
2024/02/18 13:13:08;;;;;;;0.20;0.20;;;;;;;18.16;56.97;75800.81;6316321;22;20012;-93
2024/02/18 13:15:34;;;;;;;0.20;0.20;;;;;;;18.25;54.97;75814.44;6317065;22;20005;-94
2024/02/18 13:18:02;;;;;;;0.20;0.20;;;;;;;18.63;57.35;75861.66;6315903;22;20087;-94
2024/02/18 13:20:28;;;;;;;0.20;0.20;;;;;;;18.95;53.67;75898.94;6317354;22;20020;-93
2024/02/18 13:22:53;;;;;;;0.20;0.20;;;;;;;18.98;55.69;75905.34;6317421;22;20008;-94
2024/02/18 13:25:19;;;;;;;0.20;0.20;;;;;;;18.86;55.83;75888.72;6316644;22;20001;-94
2024/02/18 13:27:44;;;;;;;0.20;0.20;;;;;;;18.93;57.19;75904.94;6317332;22;20005;-94
2024/02/18 13:30:10;;;;;;;0.20;0.20;;;;;;;18.84;58.18;75892.50;6316837;22;20111;-94
2024/02/18 13:32:36;;;;;;;0.20;0.20;;;;;;;18.57;61.48;75854.47;6316889;22;20659;-95
2024/02/18 13:35:01;;;;;;;0.20;0.20;;;;;;;18.38;64.00;75828.84;6317627;22;20004;-96
2024/02/18 13:37:30;;;;;;;0.20;0.20;;;;;;;17.95;66.39;75776.22;6316761;22;20015;-95
2024/02/18 13:39:55;;;;;;;0.20;0.20;;;;;;;18.31;65.62;75826.63;6317350;22;20009;-95
2024/02/18 13:42:21;;;;;;;0.20;0.20;;;;;;;17.77;67.73;75757.41;6317207;22;20012;-95
2024/02/18 13:44:46;;;;;;;0.20;0.20;;;;;;;17.95;67.92;75781.81;6314975;22;20516;-96
2024/02/18 13:47:13;;;;;;;0.20;0.20;;;;;;;18.15;68.77;75805.22;6315258;22;20497;-96
2024/02/18 13:49:38;;;;;;;0.20;0.20;;;;;;;18.16;70.19;75806.41;6315646;22;20009;-95
2024/02/18 13:52:03;;;;;;;0.20;0.20;;;;;;;17.88;70.84;75772.81;6315741;22;20000;-96
2024/02/18 13:54:29;;;;;;;0.20;0.20;;;;;;;17.77;71.40;75758.00;6316635;22;20000;-95
2024/02/18 13:57:01;;;;;;;0.20;0.20;;;;;;;18.04;70.41;75792.63;6318482;22;20005;-96
2024/02/18 13:59:26;;;;;;;0.20;0.20;;;;;;;17.42;75.14;75718.78;6320365;22;20601;-96
2024/02/18 14:01:53;;;;;;;0.20;0.20;;;;;;;18.06;73.60;75800.03;6317304;22;19997;-96
2024/02/18 14:04:18;;;;;;;0.20;0.20;;;;;;;18.03;70.97;75791.41;6317213;22;20407;-96
2024/02/18 14:06:44;;;;;;;0.20;0.20;;;;;;;18.00;69.18;75787.22;6317342;22;20002;-96
2024/02/18 14:09:12;;;;;;;0.20;0.20;;;;;;;18.04;69.71;75795.41;6317984;22;20008;-96
2024/02/18 14:11:39;;;;;;;0.20;0.20;;;;;;;18.25;66.89;75817.22;6318606;22;20087;-96
2024/02/18 14:14:05;;;;;;;0.20;0.20;;;;;;;17.82;68.11;75765.63;6317258;22;20001;-95
2024/02/18 14:16:35;;;;;;;0.20;0.20;;;;;;;17.82;70.33;75766.22;6317053;22;20621;-94
2024/02/18 14:19:01;;;;;;;0.20;0.20;;;;;;;17.89;71.53;75774.59;6316198;22;20008;-95
2024/02/18 14:21:31;;;;;;;0.20;0.20;;;;;;;17.72;72.22;75754.81;6317148;22;20008;-96
2024/02/18 14:23:56;;;;;;;0.20;0.20;;;;;;;17.62;71.76;75739.38;6316775;22;20080;-95
2024/02/18 14:26:22;;;;;;;0.20;0.20;;;;;;;17.50;71.23;75728.38;6317280;22;20011;-96
2024/02/18 14:28:50;;;;;;;0.20;0.20;;;;;;;17.26;69.64;75702.97;6316643;22;20012;-96
2024/02/18 14:31:16;;;;;;;0.20;0.20;;;;;;;17.64;68.34;75750.78;6212057;22;20320;-95
2024/02/18 14:33:45;;;;;;;0.20;0.20;;;;;;;17.83;70.56;75766.81;6216202;22;20009;-95
2024/02/18 14:36:12;;;;;;;0.20;0.20;;;;;;;17.81;71.04;75765.00;6319597;22;20012;-95
2024/02/18 14:38:37;;;;;;;0.20;0.20;;;;;;;17.66;72.63;75747.59;6318730;22;20039;-95
2024/02/18 14:41:04;;;;;;;0.20;0.20;;;;;;;17.41;74.64;75720.38;6214030;22;20001;-95
2024/02/18 14:43:29;;;;;;;0.20;0.20;;;;;;;17.17;76.95;75689.97;6318202;22;20287;-95
2024/02/18 14:45:55;;;;;;;0.20;0.20;;;;;;;17.26;78.21;75700.19;6317453;22;20012;-94
2024/02/18 14:48:22;;;;;;;0.20;0.20;;;;;;;17.09;78.01;75676.97;6317998;22;19997;-96
2024/02/18 14:50:48;;;;;;;0.20;0.20;;;;;;;17.08;77.99;75679.16;6316853;22;20009;-95
2024/02/18 14:53:13;;;;;;;0.20;0.20;;;;;;;16.87;78.51;75653.97;6317779;22;20047;-96
2024/02/18 14:55:39;;;;;;;0.20;0.20;;;;;;;16.86;77.75;75652.78;6317369;22;20001;-96
2024/02/18 14:58:07;;;;;;;0.20;0.20;;;;;;;16.75;78.83;75638.00;6318418;22;20130;-96
2024/02/18 15:00:33;;;;;;;0.20;0.20;;;;;;;17.07;77.26;75677.97;6318421;22;20011;-95
2024/02/18 15:02:58;;;;;;;0.20;0.20;;;;;;;17.03;76.84;75678.75;6318350;22;20008;-96
2024/02/18 15:05:23;;;;;;;0.20;0.20;;;;;;;17.02;76.41;75671.97;6318303;22;20008;-95
2024/02/18 15:07:49;;;;;;;0.20;0.20;;;;;;;16.79;78.46;75647.19;6319492;22;20008;-95
2024/02/18 15:10:14;;;;;;;0.20;0.20;;;;;;;16.65;78.11;75634.34;6318372;22;20009;-94
2024/02/18 15:12:41;;;;;;;0.20;0.20;;;;;;;16.55;78.54;75622.34;6318444;22;20084;-94
2024/02/18 15:19:09;;;;;;;0.20;0.20;;;;;;;16.42;81.79;75601.19;6213164;23;20069;-95
2024/02/18 15:21:35;;;;;;;0.20;0.20;;;;;;;16.11;84.45;75570.78;6212198;23;20032;-94
2024/02/18 15:27:31;;;;;;;0.20;0.20;;;;;;;15.63;84.06;75511.03;6310757;22;20030;-93
2024/02/18 15:29:57;;;;;;;0.20;0.20;;;;;;;15.99;86.30;75553.59;6317980;22;20038;-95
2024/02/18 15:32:22;;;;;;;0.20;0.20;;;;;;;15.73;86.91;75522.44;6319132;22;20040;-95
2024/02/18 15:38:10;;;;;;;0.20;0.20;;;;;;;15.90;85.44;75540.03;6321468;22;20076;-93
2024/02/18 15:40:36;;;;;;;0.20;0.20;;;;;;;15.95;82.67;75552.19;6289845;22;20022;-95
2024/02/18 15:43:07;;;;;;;0.20;0.20;;;;;;;15.78;81.96;75525.63;6289394;22;19999;-95
2024/02/18 15:45:32;;;;;;;0.20;0.20;;;;;;;15.65;84.17;75516.81;6314366;22;20003;-95
2024/02/18 15:47:58;;;;;;;0.20;0.20;;;;;;;15.57;86.26;75507.22;6288277;22;20037;-96
2024/02/18 15:50:24;;;;;;;0.20;0.20;;;;;;;15.37;88.26;75483.22;6264510;22;20015;-95
2024/02/18 15:52:49;;;;;;;0.20;0.20;;;;;;;15.36;89.91;75476.47;6288459;22;20423;-95
2024/02/18 15:55:18;;;;;;;0.20;0.20;;;;;;;15.34;90.79;75474.69;6289273;22;19999;-95
2024/02/18 15:57:43;;;;;;;0.20;0.20;;;;;;;15.14;91.96;75451.31;6264635;22;20076;-95
2024/02/18 16:00:11;;;;;;;0.20;0.20;;;;;;;15.28;91.93;75467.47;6288146;22;20007;-96
2024/02/18 16:02:37;;;;;;;0.20;0.20;;;;;;;15.27;92.12;75466.28;6287667;22;20004;-92
2024/02/18 16:05:02;;;;;;;0.20;0.20;;;;;;;15.12;92.79;75451.69;6286602;22;20142;-94
2024/02/18 16:07:28;;;;;;;0.20;0.20;;;;;;;14.95;91.71;75431.31;6286221;22;20072;-96
2024/02/18 16:09:53;;;;;;;0.20;0.20;;;;;;;15.42;91.24;75486.44;6313620;22;20009;-93
2024/02/18 16:12:19;;;;;;;0.20;0.20;;;;;;;15.33;92.35;75473.47;6312775;22;20037;-92
2024/02/18 16:14:44;;;;;;;0.20;0.20;;;;;;;15.20;93.29;75461.28;6286365;22;20007;-93
2024/02/18 16:17:10;;;;;;;0.20;0.20;;;;;;;15.06;94.63;75447.28;6287776;22;20007;-93
2024/02/18 16:19:35;;;;;;;0.20;0.20;;;;;;;14.98;95.35;75437.69;6286497;22;20009;-94
2024/02/18 16:22:01;;;;;;;0.20;0.20;;;;;;;14.76;95.84;75411.94;6285596;22;20007;-94
2024/02/18 16:24:27;;;;;;;0.20;0.20;;;;;;;14.81;97.50;75420.13;6285751;22;20011;-93
2024/02/18 16:26:53;;;;;;;0.20;0.20;;;;;;;14.61;99.19;75391.78;6286497;22;20025;-93
2024/02/18 16:29:18;;;;;;;0.20;0.20;;;;;;;14.63;99.56;75394.16;6284578;22;20072;-94
2024/02/18 16:31:44;;;;;;;0.20;0.20;;;;;;;14.33;100.00;75358.81;6283063;22;20019;-95
2024/02/18 16:34:09;;;;;;;0.20;0.20;;;;;;;14.45;100.00;75377.56;6282829;22;19999;-94
2024/02/18 16:36:35;;;;;;;0.20;0.20;;;;;;;14.31;100.00;75350.84;6285052;22;20003;-94
2024/02/18 16:39:09;;;;;;;0.20;0.20;;;;;;;14.09;100.00;75327.88;6282109;22;20007;-94
2024/02/18 16:41:38;;;;;;;0.20;0.20;;;;;;;14.06;100.00;75329.25;6281881;22;20014;-93
